Flight Track Log - Related Links

Times and Time Zones

All times are in EDT time to prevent confusion due to time zone crossing. See the N10CW flight status page for this flight to view local times or setup timezone preferences in your user account.

Time Position Orientation Groundspeed Altitude Reporting Facility
EDT Latitude Longitude Course Direction KTS MPH feet Rate Location/Type
Mon 10:11:25 AM 41.5000 -87.5333 257° West 144 166 1,800  Level Chicago TRACON
Mon 10:12:48 AM 41.4883 -87.6006 257° West 184 212 3,300 1,324 Climbing Chicago Center
Mon 10:13:50 AM 41.4844 -87.6625 265° West 175 201 5,000 1,645 Climbing Chicago Center
Mon 10:14:52 AM 41.4797 -87.7228 264° West 167 192 6,700 1,645 Climbing Chicago Center
Mon 10:15:54 AM 41.4628 -87.7778 248° West 171 197 8,400 1,597 Climbing Chicago Center
Mon 10:16:56 AM 41.4300 -87.8431 236° Southwest 176 203 10,000 774 Climbing Chicago Center
Mon 10:17:58 AM 41.3772 -87.8811 208° Southwest 238 274 10,000 145 Level Chicago Center
Mon 10:19:00 AM 41.3044 -87.8869 183° South 258 297 10,300 1,161 Climbing Chicago Center
Mon 10:20:02 AM 41.2408 -87.8922 184° South 231 266 12,400 1,968 Climbing Chicago Center
Mon 10:21:05 AM 41.1933 -87.8897 178° South 177 204 14,400 1,728 Climbing Chicago Center
Mon 10:22:07 AM 41.1478 -87.8881 178° South 166 191 16,000 1,645 Climbing Chicago Center
Mon 10:23:09 AM 41.0919 -87.8850 178° South 169 194 17,800 1,452 Climbing Chicago Center
Mon 10:24:11 AM 41.0436 -87.8842 179° South 171 197 19,000 1,258 Climbing Chicago Center
Mon 10:25:13 AM 40.9956 -87.8828 179° South 173 199 20,400 1,258 Climbing Chicago Center
Mon 10:26:15 AM 40.9472 -87.8811 179° South 173 199 21,600 1,161 Climbing Chicago Center
Mon 10:27:17 AM 40.8967 -87.8803 179° South 180 207 22,800 1,161 Climbing Chicago Center
Mon 10:28:19 AM 40.8461 -87.8786 179° South 183 211 24,000 1,161 Climbing Chicago Center
Mon 10:29:21 AM 40.7842 -87.8783 180° South 185 213 25,200 1,113 Climbing Chicago Center
Mon 10:30:23 AM 40.7319 -87.8764 178° South 187 215 26,300 1,016 Climbing Chicago Center
Mon 10:31:25 AM 40.6789 -87.8750 179° South 190 219 27,300 919 Climbing Chicago Center
Mon 10:32:27 AM 40.6244 -87.8689 175° South 196 226 28,200 768 Climbing Chicago Center
Mon 10:33:30 AM 40.5694 -87.8522 167° South 201 231 28,900 768 Climbing Chicago Center
Mon 10:34:32 AM 40.5022 -87.8333 168° South 207 238 29,800 864 Climbing Chicago Center
Mon 10:35:35 AM 40.4436 -87.8181 169° South 212 244 30,700 581 Climbing Chicago Center
Mon 10:36:36 AM 40.3864 -87.8017 168° South 212 244 31,000 146 Climbing Chicago Center
Mon 10:37:38 AM 40.3192 -87.7847 169° South 241 277 31,000  Level Chicago Center
Mon 10:38:40 AM 40.2425 -87.7619 167° South 279 321 31,000  Level Chicago Center
Mon 10:39:42 AM 40.1506 -87.7358 168° South 299 344 31,000  Level Chicago Center
Mon 10:40:31 AM 40.0831 -87.7183 169° South 304 350 31,000  Level Indianapolis Center
Mon 10:41:33 AM 39.9978 -87.6947 168° South 311 358 31,000  Level Indianapolis Center
Mon 10:42:35 AM 39.9119 -87.6703 168° South 316 364 31,000  Level Indianapolis Center
Mon 10:43:37 AM 39.8089 -87.6425 168° South 316 364 31,000  Level Indianapolis Center
Mon 10:44:40 AM 39.7236 -87.6178 167° South 317 365 31,000  Level Indianapolis Center
Mon 10:45:42 AM 39.6353 -87.5958 169° South 322 371 31,000  Level Indianapolis Center
Mon 10:46:44 AM 39.5492 -87.5717 168° South 319 367 31,000  Level Indianapolis Center
Mon 10:47:46 AM 39.4639 -87.5481 168° South 316 364 31,000  Level Indianapolis Center
Mon 10:48:48 AM 39.3775 -87.5250 168° South 318 366 31,000  Level Indianapolis Center
Mon 10:49:50 AM 39.2731 -87.4967 168° South 320 368 31,000  Level Indianapolis Center
Mon 10:50:52 AM 39.1861 -87.4722 168° South 322 371 31,000  Level Indianapolis Center
Mon 10:51:54 AM 39.1050 -87.4519 169° South 321 369 31,000  Level Indianapolis Center
Mon 10:52:56 AM 39.0000 -87.4228 168° South 320 368 31,000  Level Indianapolis Center
Mon 10:53:58 AM 38.9108 -87.3997 169° South 325 374 31,000  Level Indianapolis Center
Mon 10:55:00 AM 38.8231 -87.3753 168° South 323 372 31,000  Level Indianapolis Center
Mon 10:56:02 AM 38.7347 -87.3519 168° South 322 371 31,000  Level Indianapolis Center
Mon 10:57:04 AM 38.6456 -87.3286 168° South 325 374 31,000  Level Indianapolis Center
Mon 10:58:06 AM 38.5575 -87.3056 168° South 323 372 31,000  Level Indianapolis Center
Mon 10:59:08 AM 38.4519 -87.2775 168° South 323 372 31,000  Level Indianapolis Center
Mon 11:00:10 AM 38.3644 -87.2561 169° South 323 372 31,000  Level Indianapolis Center
Mon 11:01:12 AM 38.2761 -87.2336 169° South 327 376 31,000  Level Indianapolis Center
Mon 11:02:14 AM 38.1889 -87.2094 168° South 325 374 31,000  Level Indianapolis Center
Mon 11:03:16 AM 38.1017 -87.1856 168° South 323 372 31,000  Level Indianapolis Center
Mon 11:04:18 AM 37.9956 -87.1581 168° South 325 374 31,000  Level Indianapolis Center
Mon 11:05:20 AM 37.9078 -87.1344 168° South 323 372 31,000  Level Indianapolis Center
Mon 11:06:22 AM 37.8200 -87.1117 168° South 322 371 31,000  Level Indianapolis Center
Mon 11:07:24 AM 37.7317 -87.0886 168° South 322 371 31,000  Level Indianapolis Center
Mon 11:08:26 AM 37.6439 -87.0664 169° South 323 372 31,000  Level Indianapolis Center
Mon 11:09:28 AM 37.5558 -87.0436 168° South 322 371 31,000  Level Indianapolis Center
Mon 11:11:03 AM 37.4053 -87.0072 169° South 318 366 31,000  Level Memphis Center
Mon 11:12:03 AM 37.3172 -86.9850 169° South 318 366 31,000  Level Memphis Center
Mon 11:12:33 AM 37.2778 -86.9739 167° South 321 369 31,000  Level Indianapolis Center
Mon 11:13:35 AM 37.1892 -86.9506 168° South 322 371 31,000  Level Indianapolis Center
Mon 11:14:37 AM 37.1022 -86.9275 168° South 318 366 31,000  Level Indianapolis Center
Mon 11:15:39 AM 37.0131 -86.9061 169° South 322 371 31,000  Level Indianapolis Center
Mon 11:16:41 AM 36.9256 -86.8822 168° South 320 368 31,000  Level Indianapolis Center
Mon 11:17:43 AM 36.8372 -86.8606 169° South 320 368 31,000  Level Indianapolis Center
Mon 11:18:45 AM 36.7347 -86.8339 168° South 319 367 31,000  Level Indianapolis Center
Mon 11:19:47 AM 36.6467 -86.8117 169° South 319 367 31,000  Level Indianapolis Center
Mon 11:20:49 AM 36.5572 -86.7892 169° South 322 371 31,000  Level Indianapolis Center
Mon 11:22:03 AM 36.4567 -86.7603 167° South 318 366 31,000  Level Memphis Center
Mon 11:23:03 AM 36.3558 -86.7339 168° South 329 379 31,000  Level Memphis Center
Mon 11:24:03 AM 36.2633 -86.7097 168° South 337 388 31,000  Level Memphis Center
Mon 11:25:03 AM 36.1753 -86.6931 171° South 332 382 31,000  Level Memphis Center
Mon 11:26:04 AM 36.0889 -86.6608 163° South 327 376 31,000  Level Memphis Center
Mon 11:27:03 AM 36.0042 -86.6186 158° South 327 376 31,000  Level Memphis Center
Mon 11:28:03 AM 35.9278 -86.5786 157° South 335 386 31,000  Level Memphis Center
Mon 11:29:04 AM 35.8411 -86.5364 158° South 335 386 31,000  Level Memphis Center
Mon 11:31:45 AM 35.6097 -86.4219 158° South 340 391 31,000  Level Atlanta Center
Mon 11:32:45 AM 35.5250 -86.3786 157° South 333 383 31,000  Level Atlanta Center
Mon 11:33:45 AM 35.4403 -86.3381 159° South 328 377 31,000  Level Atlanta Center
Mon 11:34:45 AM 35.3514 -86.2947 158° South 334 384 31,000  Level Atlanta Center
Mon 11:35:45 AM 35.2644 -86.2517 158° South 334 384 31,000  Level Atlanta Center
Mon 11:36:45 AM 35.1733 -86.2086 159° South 329 379 31,000  Level Atlanta Center
Mon 11:37:45 AM 35.0886 -86.1683 159° South 329 379 31,000  Level Atlanta Center
Mon 11:38:45 AM 35.0119 -86.1361 161° South 334 384 31,000  Level Atlanta Center
Mon 11:39:45 AM 34.9250 -86.0908 157° South 334 384 31,000  Level Atlanta Center
Mon 11:40:45 AM 34.8339 -86.0456 158° South 328 377 31,000  Level Atlanta Center
Mon 11:41:45 AM 34.7469 -86.0031 158° South 328 377 31,000  Level Atlanta Center
Mon 11:42:45 AM 34.6808 -85.9686 157° South 328 377 31,000  Level Atlanta Center
Mon 11:43:45 AM 34.5897 -85.9261 159° South 332 382 31,000  Level Atlanta Center
Mon 11:44:45 AM 34.5047 -85.8864 159° South 327 376 31,000  Level Atlanta Center
Mon 11:45:45 AM 34.4197 -85.8442 158° South 327 376 31,000  Level Atlanta Center
Mon 11:46:45 AM 34.3325 -85.8072 161° South 327 376 31,000  Level Atlanta Center
Mon 11:47:45 AM 34.2475 -85.7678 159° South 319 367 31,000  Level Atlanta Center
Mon 11:48:45 AM 34.1647 -85.7308 160° South 325 374 31,000  Level Atlanta Center
Mon 11:49:45 AM 34.0797 -85.6867 157° South 330 380 31,000  Level Atlanta Center
Mon 11:50:45 AM 33.9944 -85.6500 160° South 325 374 31,000  Level Atlanta Center
Mon 11:51:45 AM 33.9117 -85.6108 159° South 325 374 31,000  Level Atlanta Center
Mon 11:52:45 AM 33.8286 -85.5742 160° South 325 374 31,000  Level Atlanta Center
Mon 11:53:45 AM 33.7475 -85.5353 158° South 325 374 31,000  Level Atlanta Center
Mon 11:54:45 AM 33.6644 -85.4964 159° South 325 374 31,000  Level Atlanta Center
Mon 11:55:45 AM 33.5817 -85.4575 159° South 325 374 31,000  Level Atlanta Center
Mon 11:56:45 AM 33.4986 -85.4189 159° South 325 374 31,000  Level Atlanta Center
Mon 11:57:45 AM 33.4194 -85.3828 159° South 318 366 31,000  Level Atlanta Center
Mon 11:58:45 AM 33.3344 -85.3442 159° South 318 366 31,000  Level Atlanta Center
Mon 11:59:45 AM 33.2617 -85.3108 159° South 318 366 31,000  Level Atlanta Center
Mon 12:00:45 PM 33.1786 -85.2722 159° South 318 366 31,000  Level Atlanta Center
Mon 12:01:45 PM 33.0975 -85.2339 158° South 318 366 31,000  Level Atlanta Center
Mon 12:02:45 PM 33.0103 -85.1908 158° South 313 360 31,000  Level Atlanta Center
Mon 12:03:45 PM 32.9250 -85.1622 164° South 313 360 31,000  Level Atlanta Center
Mon 12:04:45 PM 32.8481 -85.1442 169° South 308 354 31,000  Level Atlanta Center
Mon 12:05:45 PM 32.7647 -85.1133 163° South 308 354 31,000  Level Atlanta Center
Mon 12:06:45 PM 32.6731 -85.0778 162° South 308 354 31,000  Level Atlanta Center
Mon 12:07:45 PM 32.5878 -85.0472 163° South 315 362 31,000  Level Atlanta Center
Mon 12:08:45 PM 32.5044 -85.0192 164° South 314 361 31,000  Level Atlanta Center
Mon 12:09:45 PM 32.4233 -84.9936 165° South 319 367 31,000  Level Atlanta Center
Mon 12:10:45 PM 32.3483 -84.9658 163° South 319 367 31,000  Level Atlanta Center
Mon 12:13:04 PM 32.1528 -84.8997 164° South 305 351 31,000  Level Jacksonville Center
Mon 12:14:04 PM 32.0739 -84.8736 164° South 305 351 31,000  Level Jacksonville Center
Mon 12:15:04 PM 31.9908 -84.8447 164° South 305 351 31,000  Level Jacksonville Center
Mon 12:16:04 PM 31.9014 -84.8208 167° South 305 351 31,000  Level Jacksonville Center
Mon 12:17:04 PM 31.8203 -84.7922 163° South 300 345 31,000  Level Jacksonville Center
Mon 12:18:04 PM 31.7350 -84.7661 165° South 300 345 31,000  Level Jacksonville Center
Mon 12:19:04 PM 31.6542 -84.7378 163° South 300 345 31,000  Level Jacksonville Center
Mon 12:20:04 PM 31.5731 -84.7117 165° South 300 345 31,000  Level Jacksonville Center
Mon 12:21:04 PM 31.4900 -84.6858 165° South 300 345 31,000  Level Jacksonville Center
Mon 12:22:04 PM 31.4089 -84.6550 162° South 300 345 31,000  Level Jacksonville Center
Mon 12:23:04 PM 31.3278 -84.6267 163° South 300 345 31,000  Level Jacksonville Center
Mon 12:24:04 PM 31.2469 -84.6008 165° South 300 345 31,000  Level Jacksonville Center
Mon 12:25:04 PM 31.1658 -84.5750 165° South 300 345 31,000  Level Jacksonville Center
Mon 12:26:04 PM 31.0825 -84.5494 165° South 300 345 31,000  Level Jacksonville Center
Mon 12:27:04 PM 31.0014 -84.5214 163° South 300 345 31,000  Level Jacksonville Center
Mon 12:28:04 PM 30.9203 -84.4933 163° South 300 345 31,000  Level Jacksonville Center
Mon 12:29:04 PM 30.8414 -84.4678 164° South 300 345 31,000  Level Jacksonville Center
Mon 12:30:04 PM 30.7603 -84.4422 165° South 300 345 31,000  Level Jacksonville Center
Mon 12:31:04 PM 30.6833 -84.4192 166° South 300 345 31,000  Level Jacksonville Center
Mon 12:32:04 PM 30.6042 -84.3939 165° South 300 345 31,000 -50 Level Jacksonville Center
Mon 12:33:04 PM 30.5294 -84.3564 157° South 295 339 30,900  Descending Jacksonville Center
Mon 12:34:04 PM 30.4569 -84.3094 151° Southeast 295 339 31,000 50 Climbing Jacksonville Center
Mon 12:35:04 PM 30.3864 -84.2628 150° Southeast 290 334 31,000  Level Jacksonville Center
Mon 12:36:04 PM 30.3161 -84.2161 150° Southeast 295 339 31,000  Level Jacksonville Center
Mon 12:37:04 PM 30.2539 -84.1792 153° Southeast 286 329 31,000  Level Jacksonville Center
Mon 12:38:04 PM 30.1894 -84.1253 144° Southeast 286 329 31,000  Level Jacksonville Center
Mon 12:39:04 PM 30.1381 -84.0503 128° Southeast 292 336 31,000  Level Jacksonville Center
Mon 12:40:04 PM 30.0864 -83.9800 130° Southeast 292 336 31,000  Level Jacksonville Center
Mon 12:41:04 PM 30.0350 -83.9050 128° Southeast 292 336 31,000  Level Jacksonville Center
Mon 12:42:04 PM 29.9853 -83.8278 127° Southeast 292 336 31,000  Level Jacksonville Center
Mon 12:43:04 PM 29.9336 -83.7578 130° Southeast 292 336 31,000  Level Jacksonville Center
Mon 12:44:04 PM 29.8800 -83.6806 129° Southeast 298 343 31,000  Level Jacksonville Center
Mon 12:45:04 PM 29.8281 -83.6061 129° Southeast 298 343 31,000  Level Jacksonville Center
Mon 12:46:04 PM 29.7742 -83.5292 129° Southeast 304 350 31,000  Level Jacksonville Center
Mon 12:47:04 PM 29.7203 -83.4522 129° Southeast 304 350 31,000  Level Jacksonville Center
Mon 12:48:04 PM 29.6664 -83.3778 130° Southeast 304 350 31,000  Level Jacksonville Center
Mon 12:49:04 PM 29.6103 -83.2986 129° Southeast 309 356 31,000  Level Jacksonville Center
Mon 12:50:04 PM 29.5542 -83.2125 127° Southeast 303 349 31,000  Level Jacksonville Center
Mon 12:51:04 PM 29.4958 -83.1336 130° Southeast 309 356 31,000  Level Jacksonville Center
Mon 12:52:04 PM 29.4458 -83.0619 129° Southeast 314 361 31,000  Level Jacksonville Center
Mon 12:53:04 PM 29.3917 -82.9831 128° Southeast 314 361 31,000  Level Jacksonville Center
Mon 12:54:04 PM 29.3353 -82.9044 129° Southeast 314 361 31,000  Level Jacksonville Center
Mon 12:55:04 PM 29.2811 -82.8258 128° Southeast 314 361 31,000  Level Jacksonville Center
Mon 12:56:04 PM 29.2247 -82.7475 130° Southeast 314 361 31,000  Level Jacksonville Center
Mon 12:57:04 PM 29.1703 -82.6689 128° Southeast 314 361 31,000  Level Jacksonville Center
Mon 12:58:04 PM 29.1158 -82.5908 129° Southeast 314 361 31,000  Level Jacksonville Center
Mon 12:59:04 PM 29.0592 -82.5125 130° Southeast 314 361 31,000  Level Jacksonville Center
Mon 01:00:04 PM 29.0028 -82.4344 130° Southeast 314 361 31,000 -150 Level Jacksonville Center
Mon 01:01:04 PM 28.9481 -82.3564 129° Southeast 314 361 30,700 -433 Descending Jacksonville Center
Mon 01:03:04 PM 28.8353 -82.2011 130° Southeast 309 356 29,700 -600 Descending Miami Center
Mon 01:04:04 PM 28.7797 -82.1250 130° Southeast 314 361 28,900 -900 Descending Miami Center
Mon 01:05:04 PM 28.7242 -82.0467 129° Southeast 314 361 27,900 -950 Descending Miami Center
Mon 01:06:04 PM 28.6686 -81.9686 129° Southeast 314 361 27,000 -450 Descending Miami Center
Mon 01:07:04 PM 28.6150 -81.8928 129° Southeast 314 361 27,000  Level Miami Center
Mon 01:08:04 PM 28.5611 -81.8242 132° Southeast 314 361 27,000  Level Miami Center
Mon 01:09:04 PM 28.4872 -81.7903 158° South 284 327 27,000 -100 Level Miami Center
Mon 01:10:04 PM 28.4086 -81.7678 166° South 284 327 26,800 -650 Descending Miami Center
Mon 01:11:04 PM 28.3300 -81.7478 167° South 284 327 25,700 -900 Descending Miami Center
Mon 01:12:04 PM 28.2558 -81.7258 165° South 289 333 25,000 -450 Descending Miami Center
Mon 01:13:04 PM 28.1814 -81.7039 165° South 289 333 24,800 -400 Descending Miami Center
Mon 01:14:04 PM 28.1008 -81.6814 166° South 284 327 24,200 -750 Descending Miami Center
Mon 01:15:04 PM 28.0281 -81.6736 175° South 289 333 23,300 -1,000 Descending Miami Center
Mon 01:16:04 PM 27.9564 -81.6942 194° South 273 314 22,200 -1,050 Descending Miami Center
Mon 01:17:04 PM 27.8867 -81.7169 196° South 267 307 21,200 -1,000 Descending Miami Center
Mon 01:18:04 PM 27.8214 -81.7378 196° South 262 302 20,200 -1,050 Descending Miami Center
Mon 01:19:04 PM 27.7433 -81.7603 194° South 262 302 19,100 -1,050 Descending Miami Center
Mon 01:20:04 PM 27.6722 -81.7664 184° South 262 302 18,100 -1,350 Descending Miami Center
Mon 01:21:04 PM 27.6053 -81.7658 180° South 262 302 16,400 -1,800 Descending Miami Center
Mon 01:22:04 PM 27.5314 -81.7347 160° South 262 302 14,500 -1,900 Descending Miami Center
Mon 01:23:04 PM 27.4675 -81.7064 159° South 256 295 12,600 -1,900 Descending Miami Center
Mon 01:24:04 PM 27.4039 -81.6731 155° Southeast 256 295 10,700 -1,800 Descending Miami Center
Mon 01:25:04 PM 27.3422 -81.6450 158° South 249 287 9,000 -850 Descending Miami Center
Mon 01:26:04 PM 27.2847 -81.6169 157° South 239 275 9,000  Level Miami Center
Mon 01:27:04 PM 27.2272 -81.5911 158° South 234 269 9,000  Level Miami Center
Mon 01:28:04 PM 27.1678 -81.5606 155° Southeast 229 264 9,000  Level Miami Center
Mon 01:29:04 PM 27.1100 -81.5328 157° South 229 264 9,000  Level Miami Center
Mon 01:30:04 PM 27.0525 -81.5069 158° South 229 264 9,000  Level Miami Center
Mon 01:31:04 PM 26.9969 -81.4792 156° South 229 264 9,000  Level Miami Center
Mon 01:32:04 PM 26.9394 -81.4489 155° Southeast 229 264 9,000  Level Miami Center
Mon 01:33:04 PM 26.8819 -81.4211 157° South 229 264 9,000 -250 Level Miami Center
Mon 01:34:04 PM 26.8286 -81.3933 155° Southeast 229 264 8,500 -500 Descending Miami Center
Mon 01:36:00 PM 26.6921 -81.4709 197° South  Level Estimated
Mon 01:43:00 PM 26.1974 -81.7504 194° South  Level Estimated
Mon 01:44:00 PM 26.1500 -81.7667 194° South  Level FlightAware
Mon 01:45:00 PM 26.1524 -81.7756 194° South  Level Estimated
Mon 01:46:00 PM 26.1524 -81.7756 194° South  Level Estimated
Mon 01:47:00 PM 26.1524 -81.7756 194° South  Level Estimated
Mon 01:48:00 PM 26.1524 -81.7756 194° South  Level Estimated
Mon 01:49:00 PM 26.1524 -81.7756 194° South  Level Estimated
Mon 01:50:00 PM 26.1524 -81.7756 194° South  Level Estimated
Mon 01:51:00 PM 26.1524 -81.7756 194° South  Level Estimated
Mon 01:52:00 PM 26.1524 -81.7756 194° South  Level Estimated
Mon 01:53:00 PM 26.1524 -81.7756 194° South  Level Estimated
Mon 01:54:00 PM 26.1524 -81.7756 194° South  Level Estimated
Mon 01:55:00 PM 26.1524 -81.7756 194° South  Level Estimated
Mon 01:56:00 PM 26.1524 -81.7756 194° South  Level Estimated
Mon 01:57:00 PM 26.1524 -81.7756 194° South  Level Estimated
Mon 01:58:00 PM 26.1524 -81.7756 194° South  Level Estimated
Mon 01:59:00 PM 26.1524 -81.7756 194° South  Level Estimated

Login

Don't have an account? Register now (free) for customized features, flight alerts, and more!